createdAt,value
2018-09-03T00:00:07.049Z,81.27
2018-09-03T00:02:35.996Z,81.52
2018-09-03T00:05:04.962Z,81.59
2018-09-03T00:07:34.227Z,82.08
2018-09-03T00:10:03.132Z,81.47
2018-09-03T00:12:32.161Z,82.17
2018-09-03T00:15:01.194Z,82.27
2018-09-03T00:17:30.175Z,81.42
2018-09-03T00:19:59.109Z,82.34
2018-09-03T00:22:28.052Z,83.13
2018-09-03T00:24:56.990Z,81.44
2018-09-03T00:27:26.036Z,82.48
2018-09-03T00:29:55.052Z,81.59
2018-09-03T00:32:29.361Z,83.01
2018-09-03T00:36:05.271Z,82.21
2018-09-03T00:38:39.581Z,83.14
2018-09-03T00:41:13.857Z,83.47
2018-09-03T00:43:48.295Z,83.90
2018-09-03T00:46:22.606Z,83.81
2018-09-03T00:48:51.591Z,83.77
2018-09-03T00:51:20.589Z,83.68
2018-09-03T00:53:49.539Z,84.36
2018-09-03T00:56:18.491Z,84.07
2018-09-03T00:58:47.451Z,83.71
2018-09-03T01:01:16.567Z,84.06
2018-09-03T01:03:45.710Z,84.16
2018-09-03T01:06:14.709Z,83.86
2018-09-03T01:08:43.704Z,84.34
2018-09-03T01:11:12.651Z,84.64
2018-09-03T01:13:41.651Z,84.92
2018-09-03T01:16:10.546Z,84.62
2018-09-03T01:18:44.812Z,85.94
2018-09-03T01:21:13.754Z,84.71
2018-09-03T01:23:42.744Z,85.02
2018-09-03T01:26:11.863Z,85.27
2018-09-03T01:28:40.833Z,85.74
2018-09-03T01:31:09.876Z,84.91
2018-09-03T01:33:38.847Z,85.38
2018-09-03T01:36:07.886Z,85.54
2018-09-03T01:38:37.063Z,86.53
2018-09-03T01:41:05.982Z,86.42
2018-09-03T01:43:35.015Z,86.50
2018-09-03T01:46:04.203Z,85.94
2018-09-03T01:48:33.306Z,87.37
2018-09-03T01:51:02.943Z,85.78
2018-09-03T01:53:31.975Z,85.72
2018-09-03T01:56:00.962Z,86.60
2018-09-03T01:58:29.950Z,85.85
2018-09-03T02:00:59.008Z,86.86
2018-09-03T02:03:28.849Z,85.34
2018-09-03T02:05:57.826Z,86.27
2018-09-03T02:08:26.954Z,86.39
2018-09-03T02:10:56.063Z,85.29
2018-09-03T02:13:25.328Z,85.79
2018-09-03T02:15:54.256Z,85.98
2018-09-03T02:18:23.200Z,86.42
2018-09-03T02:20:52.163Z,86.18
2018-09-03T02:23:21.319Z,85.93
2018-09-03T02:25:50.240Z,86.21
2018-09-03T02:28:19.285Z,86.62
2018-09-03T02:30:48.261Z,86.61
2018-09-03T02:33:17.342Z,87.25
2018-09-03T02:35:46.469Z,86.54
2018-09-03T02:38:16.070Z,87.90
2018-09-03T02:40:44.991Z,86.72
2018-09-03T02:43:14.271Z,86.48
2018-09-03T02:45:43.262Z,86.57
2018-09-03T02:48:12.279Z,85.97
2018-09-03T02:50:41.324Z,86.33
2018-09-03T02:53:10.264Z,86.54
2018-09-03T02:55:39.205Z,87.08
2018-09-03T02:58:08.198Z,86.73
2018-09-03T03:00:37.296Z,87.49
2018-09-03T03:03:06.313Z,88.72
2018-09-03T03:05:35.245Z,87.50
2018-09-03T03:08:04.304Z,89.10
2018-09-03T03:10:33.248Z,88.21
2018-09-03T03:13:02.341Z,87.39
2018-09-03T03:15:31.281Z,87.84
2018-09-03T03:18:00.230Z,86.80
2018-09-03T03:20:29.238Z,88.41
2018-09-03T03:22:58.192Z,88.04
2018-09-03T03:25:27.170Z,88.17
2018-09-03T03:27:56.096Z,88.30
2018-09-03T03:30:25.161Z,87.85
2018-09-03T03:32:54.148Z,88.17
2018-09-03T03:35:23.100Z,87.96
2018-09-03T03:37:52.074Z,88.59
2018-09-03T03:40:21.003Z,87.77
2018-09-03T03:42:49.939Z,88.06
2018-09-03T03:45:18.846Z,88.38
2018-09-03T03:47:47.758Z,89.04
2018-09-03T03:50:16.811Z,87.95
2018-09-03T03:52:45.733Z,88.51
2018-09-03T03:55:14.767Z,88.98
2018-09-03T03:57:43.694Z,88.48
2018-09-03T04:00:12.668Z,88.50
2018-09-03T04:02:41.635Z,89.07
2018-09-03T04:05:10.700Z,89.32
2018-09-03T04:07:39.674Z,88.77
2018-09-03T04:10:08.797Z,88.54
2018-09-03T04:12:37.722Z,88.57
2018-09-03T04:15:06.669Z,87.94
2018-09-03T04:17:35.653Z,89.35
2018-09-03T04:20:05.558Z,89.29
2018-09-03T04:22:34.655Z,89.18
2018-09-03T04:25:04.075Z,89.42
2018-09-03T04:27:33.069Z,89.65
2018-09-03T04:30:02.037Z,89.49
2018-09-03T04:32:31.109Z,89.54
2018-09-03T04:35:00.127Z,90.00
2018-09-03T04:37:29.027Z,89.52
2018-09-03T04:39:58.007Z,89.58
2018-09-03T04:42:26.893Z,88.79
2018-09-03T04:44:55.875Z,88.73
2018-09-03T04:47:24.807Z,88.54
2018-09-03T04:49:53.994Z,89.05
2018-09-03T04:52:22.975Z,89.49
2018-09-03T04:54:51.906Z,89.49
2018-09-03T04:57:20.844Z,89.58
2018-09-03T04:59:49.784Z,89.67
2018-09-03T05:02:18.722Z,89.97
2018-09-03T05:04:47.689Z,90.71
2018-09-03T05:07:16.662Z,89.93
2018-09-03T05:09:45.988Z,90.18
2018-09-03T05:12:14.899Z,89.97
2018-09-03T05:14:43.816Z,90.09
2018-09-03T05:17:12.882Z,90.40
2018-09-03T05:19:41.854Z,90.45
2018-09-03T05:22:10.755Z,90.67
2018-09-03T05:24:39.759Z,90.41
2018-09-03T05:27:08.768Z,90.38
2018-09-03T05:29:37.926Z,89.85
2018-09-03T05:32:06.890Z,89.68
2018-09-03T05:34:35.841Z,90.14
2018-09-03T05:37:04.781Z,90.45
2018-09-03T05:39:33.777Z,90.77
2018-09-03T05:42:02.795Z,90.04
2018-09-03T05:44:31.821Z,90.66
2018-09-03T05:47:00.753Z,90.81
2018-09-03T05:49:29.708Z,90.72
2018-09-03T05:51:58.670Z,90.26
2018-09-03T05:54:27.581Z,90.95
2018-09-03T05:56:56.526Z,90.64
2018-09-03T05:59:25.540Z,90.44
2018-09-03T06:01:54.434Z,91.05
2018-09-03T06:04:23.426Z,90.60
2018-09-03T06:06:52.390Z,90.38
2018-09-03T06:09:21.352Z,91.08
2018-09-03T06:11:50.324Z,91.27
2018-09-03T06:14:19.316Z,91.56
2018-09-03T06:16:48.209Z,89.56
2018-09-03T06:19:17.134Z,90.90
2018-09-03T06:21:46.213Z,91.77
2018-09-03T06:24:15.140Z,91.27
2018-09-03T06:26:44.116Z,91.25
2018-09-03T06:29:13.007Z,89.86
2018-09-03T06:31:41.957Z,90.47
2018-09-03T06:34:10.874Z,90.12
2018-09-03T06:36:39.865Z,90.18
2018-09-03T06:39:09.425Z,90.22
2018-09-03T06:41:38.321Z,91.38
2018-09-03T06:44:07.226Z,90.64
2018-09-03T06:46:36.534Z,91.16
2018-09-03T06:49:05.466Z,91.06
2018-09-03T06:51:34.397Z,91.31
2018-09-03T06:54:03.359Z,90.99
2018-09-03T06:56:32.279Z,90.97
2018-09-03T06:59:01.192Z,90.07
2018-09-03T07:01:30.387Z,90.15
2018-09-03T07:03:59.414Z,90.47
2018-09-03T07:06:28.321Z,90.65
2018-09-03T07:08:57.264Z,90.75
2018-09-03T07:11:26.182Z,90.83
2018-09-03T07:13:55.153Z,90.06
2018-09-03T07:16:24.078Z,90.19
2018-09-03T07:18:53.048Z,90.58
2018-09-03T07:21:21.969Z,90.12
2018-09-03T07:23:51.196Z,90.11
2018-09-03T07:26:20.114Z,90.46
2018-09-03T07:28:49.122Z,90.30
2018-09-03T07:31:18.045Z,89.74
2018-09-03T07:33:46.960Z,89.21
2018-09-03T07:36:15.929Z,88.98
2018-09-03T07:38:45.258Z,88.30
2018-09-03T07:41:14.199Z,89.00
2018-09-03T07:43:43.124Z,88.35
2018-09-03T07:46:12.085Z,87.56
2018-09-03T07:48:41.016Z,87.25
2018-09-03T07:51:10.444Z,87.74
2018-09-03T07:53:39.242Z,87.82
2018-09-03T07:56:08.172Z,87.22
2018-09-03T07:58:37.364Z,87.01
2018-09-03T08:01:06.474Z,86.95
2018-09-03T08:03:35.360Z,86.74
2018-09-03T08:06:04.265Z,86.66
2018-09-03T08:08:33.228Z,86.47
2018-09-03T08:11:02.481Z,86.61
2018-09-03T08:13:36.754Z,86.97
2018-09-03T08:16:06.049Z,86.39
2018-09-03T08:18:34.981Z,86.22
2018-09-03T08:21:04.119Z,85.63
2018-09-03T08:23:33.046Z,86.27
2018-09-03T08:26:01.954Z,85.75
2018-09-03T08:28:31.058Z,85.38
2018-09-03T08:31:00.162Z,85.63
2018-09-03T08:33:29.064Z,85.39
2018-09-03T08:35:58.583Z,85.74
2018-09-03T08:38:27.504Z,84.99
2018-09-03T08:40:56.437Z,84.99
2018-09-03T08:43:25.401Z,84.96
2018-09-03T08:45:54.411Z,85.08
2018-09-03T08:48:23.437Z,84.70
2018-09-03T08:50:52.330Z,84.86
2018-09-03T08:53:21.369Z,84.29
2018-09-03T08:55:50.274Z,84.83
2018-09-03T08:58:19.231Z,84.34
2018-09-03T09:00:48.217Z,83.71
2018-09-03T09:03:22.580Z,82.76
2018-09-03T09:05:51.571Z,83.27
2018-09-03T09:08:20.635Z,83.47
2018-09-03T09:10:49.597Z,82.95
2018-09-03T09:13:19.965Z,83.29
2018-09-03T09:15:49.458Z,82.79
2018-09-03T09:18:18.446Z,82.56
2018-09-03T09:20:47.427Z,81.91
2018-09-03T09:23:16.707Z,82.06
2018-09-03T09:25:45.667Z,82.36
2018-09-03T09:28:14.962Z,81.73
2018-09-03T09:30:43.910Z,80.64
2018-09-03T09:39:08.438Z,80.36
2018-09-03T09:41:37.356Z,80.41
2018-09-03T09:44:06.421Z,80.72
2018-09-03T09:46:35.391Z,81.05
2018-09-03T09:49:04.283Z,81.08
2018-09-03T09:51:33.238Z,79.73
2018-09-03T09:54:02.201Z,78.98
2018-09-03T09:56:31.107Z,80.49
2018-09-03T09:59:00.022Z,78.78
2018-09-03T10:01:37.445Z,78.73
2018-09-03T10:04:07.274Z,77.47
2018-09-03T10:06:36.574Z,77.42
2018-09-03T10:09:07.283Z,76.92
2018-09-03T10:11:36.264Z,77.65
2018-09-03T10:14:05.178Z,78.13
2018-09-03T10:16:34.266Z,75.31
2018-09-03T10:19:03.211Z,76.48
2018-09-03T10:21:32.450Z,76.41
2018-09-03T10:24:01.341Z,77.00
2018-09-03T10:26:30.281Z,75.47
2018-09-03T10:28:59.279Z,74.65
2018-09-03T10:31:28.213Z,74.26
2018-09-03T10:33:57.109Z,76.08
2018-09-03T10:36:26.077Z,75.15
2018-09-03T10:38:54.979Z,73.72
2018-09-03T10:41:23.955Z,73.12
2018-09-03T10:43:53.163Z,74.39
2018-09-03T10:46:22.447Z,74.04
2018-09-03T10:48:51.375Z,73.95
2018-09-03T10:51:20.315Z,73.80
2018-09-03T10:53:49.232Z,73.10
2018-09-03T10:56:18.148Z,73.91
2018-09-03T10:58:47.107Z,72.85
2018-09-03T11:01:16.004Z,72.69
2018-09-03T11:03:48.744Z,73.21
2018-09-03T11:06:17.918Z,72.58
2018-09-03T11:08:46.893Z,72.10
2018-09-03T11:11:15.795Z,70.93
2018-09-03T11:13:44.739Z,71.60
2018-09-03T11:16:13.692Z,69.19
2018-09-03T11:18:42.642Z,70.27
2018-09-03T11:21:11.695Z,68.27
2018-09-03T11:23:40.595Z,69.25
2018-09-03T11:26:09.533Z,69.94
2018-09-03T11:28:38.556Z,68.93
2018-09-03T11:31:07.495Z,69.62
2018-09-03T11:33:36.397Z,69.04
2018-09-03T11:36:05.315Z,68.26
2018-09-03T11:38:34.347Z,67.54
2018-09-03T11:41:03.243Z,63.61
2018-09-03T11:43:34.298Z,64.72
2018-09-03T11:46:03.231Z,62.96
2018-09-03T11:48:32.150Z,62.10
2018-09-03T11:51:01.199Z,62.33
2018-09-03T11:53:30.129Z,59.18
2018-09-03T11:55:59.443Z,61.63
2018-09-03T11:58:28.523Z,60.35
2018-09-03T12:00:59.748Z,59.29
2018-09-03T12:03:28.724Z,60.59
2018-09-03T12:05:57.682Z,59.49
2018-09-03T12:08:26.598Z,59.10
2018-09-03T12:10:55.513Z,57.17
2018-09-03T12:13:24.431Z,56.94
2018-09-03T12:16:24.297Z,57.19
2018-09-03T12:18:55.429Z,57.05
2018-09-03T12:21:24.387Z,58.21
2018-09-03T12:23:53.348Z,58.14
2018-09-03T12:26:22.294Z,56.71
2018-09-03T12:28:51.270Z,58.12
2018-09-03T12:31:20.230Z,57.62
2018-09-03T12:33:49.203Z,57.46
2018-09-03T12:36:18.107Z,57.42
2018-09-03T12:38:47.070Z,56.36
2018-09-03T12:41:16.020Z,57.67
2018-09-03T12:43:44.989Z,56.81
2018-09-03T12:46:14.306Z,57.61
2018-09-03T12:48:44.150Z,56.86
2018-09-03T12:51:13.080Z,56.75
2018-09-03T12:53:42.049Z,56.48
2018-09-03T12:56:10.997Z,57.92
2018-09-03T12:58:40.048Z,58.22
2018-09-03T13:01:08.954Z,58.56
2018-09-03T13:03:37.868Z,58.43
2018-09-03T13:06:06.840Z,58.37
2018-09-03T13:08:35.739Z,58.29
2018-09-03T13:11:04.713Z,58.44
2018-09-03T13:13:33.628Z,58.47
2018-09-03T13:16:02.659Z,57.07
2018-09-03T13:18:31.658Z,57.22
2018-09-03T13:21:00.561Z,57.65
2018-09-03T13:23:29.500Z,57.71
2018-09-03T13:25:58.872Z,58.20
2018-09-03T13:28:27.879Z,56.33
2018-09-03T13:30:56.821Z,58.17
2018-09-03T13:33:25.732Z,57.12
2018-09-03T13:35:54.662Z,55.01
2018-09-03T13:38:23.610Z,56.82
2018-09-03T13:40:52.548Z,56.51
2018-09-03T13:43:21.506Z,55.89
2018-09-03T13:45:50.457Z,55.68
2018-09-03T13:48:19.488Z,55.68
2018-09-03T13:50:48.460Z,56.24
2018-09-03T13:53:17.409Z,55.67
2018-09-03T13:55:46.367Z,57.65
2018-09-03T13:58:15.328Z,57.57
2018-09-03T14:00:44.406Z,56.33
2018-09-03T14:03:13.392Z,55.80
2018-09-03T14:05:42.274Z,54.36
2018-09-03T14:08:11.287Z,54.62
2018-09-03T14:10:40.250Z,52.91
2018-09-03T14:13:09.219Z,52.62
2018-09-03T14:15:38.189Z,52.56
2018-09-03T14:18:07.209Z,51.68
2018-09-03T14:20:36.608Z,51.86
2018-09-03T14:23:05.929Z,53.15
2018-09-03T14:25:34.885Z,50.58
2018-09-03T14:28:03.826Z,51.59
2018-09-03T14:30:32.798Z,53.04
2018-09-03T14:33:01.781Z,52.76
2018-09-03T14:35:30.695Z,53.54
2018-09-03T14:37:59.644Z,53.78
2018-09-03T14:40:28.941Z,54.93
2018-09-03T14:42:57.943Z,56.04
2018-09-03T14:45:26.933Z,54.26
2018-09-03T14:47:56.000Z,55.69
2018-09-03T14:50:25.564Z,55.05
2018-09-03T14:52:54.466Z,56.01
2018-09-03T14:55:23.620Z,55.91
2018-09-03T14:57:52.620Z,55.99
2018-09-03T15:00:21.552Z,55.21
2018-09-03T15:02:51.149Z,55.93
2018-09-03T15:05:20.084Z,56.38
2018-09-03T15:07:49.886Z,55.44
2018-09-03T15:10:18.835Z,56.84
2018-09-03T15:12:47.756Z,57.63
2018-09-03T15:15:16.687Z,56.24
2018-09-03T15:17:45.631Z,55.55
2018-09-03T15:20:14.605Z,55.43
2018-09-03T15:22:48.000Z,55.62
2018-09-03T15:25:17.098Z,55.67
2018-09-03T15:27:46.049Z,55.56
2018-09-03T15:30:15.153Z,55.56
2018-09-03T15:32:45.019Z,55.22
2018-09-03T15:35:14.109Z,56.58
2018-09-03T15:37:43.044Z,56.57
2018-09-03T15:40:12.084Z,57.09
2018-09-03T15:42:41.099Z,56.04
2018-09-03T15:45:10.095Z,56.54
2018-09-03T15:47:39.118Z,57.34
2018-09-03T15:50:08.085Z,56.47
2018-09-03T15:52:37.080Z,55.75
2018-09-03T15:55:06.489Z,55.60
2018-09-03T15:57:35.449Z,55.96
2018-09-03T16:00:05.125Z,55.45
2018-09-03T16:02:34.210Z,54.82
2018-09-03T16:05:03.235Z,56.41
2018-09-03T16:07:32.210Z,56.29
2018-09-03T16:10:01.495Z,56.03
2018-09-03T16:12:30.441Z,56.17
2018-09-03T16:14:59.433Z,55.57
2018-09-03T16:17:28.442Z,56.58
2018-09-03T16:19:57.541Z,55.73
2018-09-03T16:22:30.397Z,56.49
2018-09-03T16:24:59.396Z,56.00
2018-09-03T16:27:28.485Z,56.78
2018-09-03T16:29:57.502Z,56.74
2018-09-03T16:32:26.453Z,56.40
2018-09-03T16:34:55.442Z,56.85
2018-09-03T16:37:24.453Z,56.65
2018-09-03T16:39:53.442Z,55.79
2018-09-03T16:42:22.435Z,55.72
2018-09-03T16:44:51.455Z,56.44
2018-09-03T16:47:20.414Z,56.97
2018-09-03T16:49:49.393Z,56.68
2018-09-03T16:52:18.413Z,56.37
2018-09-03T16:54:50.838Z,57.03
2018-09-03T16:57:19.855Z,57.25
2018-09-03T16:59:48.886Z,57.60
2018-09-03T17:02:17.948Z,56.38
2018-09-03T17:04:47.105Z,56.96
2018-09-03T17:07:16.366Z,57.20
2018-09-03T17:09:45.336Z,56.99
2018-09-03T17:12:14.297Z,57.21
2018-09-03T17:14:43.285Z,57.48
2018-09-03T17:17:12.307Z,57.56
2018-09-03T17:19:41.274Z,57.67
2018-09-03T17:22:10.348Z,57.11
2018-09-03T17:24:39.587Z,58.21
2018-09-03T17:27:08.537Z,58.19
2018-09-03T17:29:38.700Z,57.35
2018-09-03T17:32:07.686Z,58.03
2018-09-03T17:34:36.671Z,57.45
2018-09-03T17:37:05.712Z,58.45
2018-09-03T17:39:34.693Z,57.82
2018-09-03T17:42:04.033Z,58.67
2018-09-03T17:44:33.021Z,58.57
2018-09-03T17:47:02.632Z,58.75
2018-09-03T17:49:31.774Z,59.16
2018-09-03T17:52:00.724Z,58.85
2018-09-03T17:54:29.987Z,59.05
2018-09-03T17:56:58.973Z,59.03
2018-09-03T17:59:27.962Z,58.50
2018-09-03T18:01:56.939Z,58.70
2018-09-03T18:04:25.896Z,59.65
2018-09-03T18:06:54.866Z,59.51
2018-09-03T18:09:23.832Z,60.23
2018-09-03T18:11:52.817Z,59.56
2018-09-03T18:14:21.849Z,60.11
2018-09-03T18:16:51.354Z,59.69
2018-09-03T18:19:20.377Z,59.38
2018-09-03T18:21:49.510Z,60.08
2018-09-03T18:24:18.411Z,60.36
2018-09-03T18:26:47.407Z,60.63
2018-09-03T18:29:16.426Z,61.31
2018-09-03T18:31:45.407Z,61.35
2018-09-03T18:34:14.386Z,61.20
2018-09-03T18:36:43.526Z,61.90
2018-09-03T18:39:12.707Z,61.39
2018-09-03T18:41:41.765Z,61.59
2018-09-03T18:44:10.723Z,62.29
2018-09-03T18:46:39.711Z,61.92
2018-09-03T18:49:08.818Z,62.26
2018-09-03T18:51:37.806Z,62.22
2018-09-03T18:54:06.765Z,62.65
2018-09-03T18:56:35.762Z,62.52
2018-09-03T18:59:04.944Z,63.00
2018-09-03T19:01:33.933Z,63.37
2018-09-03T19:04:02.897Z,64.29
2018-09-03T19:06:31.894Z,64.67
2018-09-03T19:09:00.894Z,65.13
2018-09-03T19:11:30.992Z,64.69
2018-09-03T19:13:59.897Z,65.67
2018-09-03T19:16:28.880Z,66.45
2018-09-03T19:18:57.949Z,65.79
2018-09-03T19:21:26.936Z,65.77
2018-09-03T19:23:55.881Z,66.54
2018-09-03T19:26:24.862Z,66.90
2018-09-03T19:28:53.864Z,66.54
2018-09-03T19:31:23.103Z,66.82
2018-09-03T19:33:52.145Z,66.73
2018-09-03T19:36:21.105Z,67.78
2018-09-03T19:38:50.156Z,67.97
2018-09-03T19:41:19.524Z,69.31
2018-09-03T19:43:48.675Z,69.15
2018-09-03T19:46:17.738Z,69.46
2018-09-03T19:48:46.853Z,69.44
2018-09-03T19:51:15.781Z,69.85
2018-09-03T19:53:44.926Z,69.38
2018-09-03T19:56:13.895Z,68.95
2018-09-03T19:58:43.113Z,69.29
2018-09-03T20:01:12.090Z,68.74
2018-09-03T20:03:41.127Z,68.58
2018-09-03T20:06:10.188Z,68.36
2018-09-03T20:08:39.381Z,69.04
2018-09-03T20:11:08.697Z,70.38
2018-09-03T20:13:37.867Z,70.42
2018-09-03T20:16:06.837Z,70.39
2018-09-03T20:18:35.978Z,68.81
2018-09-03T20:21:05.047Z,69.79
2018-09-03T20:23:34.289Z,69.72
2018-09-03T20:26:03.129Z,69.54
2018-09-03T20:28:32.140Z,69.75
2018-09-03T20:31:01.046Z,68.71
2018-09-03T20:33:30.877Z,69.52
2018-09-03T20:36:00.283Z,71.02
2018-09-03T20:38:30.258Z,70.95
2018-09-03T20:40:59.247Z,71.57
2018-09-03T20:43:28.261Z,71.07
2018-09-03T20:45:57.255Z,71.35
2018-09-03T20:48:26.234Z,72.47
2018-09-03T20:50:55.206Z,71.48
2018-09-03T20:53:24.141Z,71.07
2018-09-03T20:55:53.078Z,71.97
2018-09-03T20:58:22.047Z,72.10
2018-09-03T21:00:51.126Z,72.03
2018-09-03T21:03:20.053Z,72.24
2018-09-03T21:05:49.066Z,71.75
2018-09-03T21:08:18.036Z,72.17
2018-09-03T21:10:47.136Z,71.85
2018-09-03T21:13:16.047Z,72.62
2018-09-03T21:15:44.975Z,71.42
2018-09-03T21:18:14.188Z,72.66
2018-09-03T21:20:43.098Z,72.04
2018-09-03T21:23:12.048Z,72.69
2018-09-03T21:25:41.151Z,73.11
2018-09-03T21:28:10.107Z,72.27
2018-09-03T21:30:39.054Z,73.60
2018-09-03T21:33:08.197Z,73.27
2018-09-03T21:35:37.173Z,74.11
2018-09-03T21:38:06.147Z,73.90
2018-09-03T21:40:35.123Z,73.86
2018-09-03T21:43:04.057Z,73.67
2018-09-03T21:45:33.186Z,74.88
2018-09-03T21:48:02.113Z,73.37
2018-09-03T21:50:31.077Z,73.44
2018-09-03T21:53:00.065Z,74.48
2018-09-03T21:55:29.065Z,74.05
2018-09-03T21:57:58.262Z,74.18
2018-09-03T22:00:27.299Z,73.92
2018-09-03T22:02:56.217Z,74.83
2018-09-03T22:05:25.234Z,74.50
2018-09-03T22:07:54.202Z,73.79
2018-09-03T22:10:23.258Z,73.77
2018-09-03T22:12:52.261Z,74.08
2018-09-03T22:15:21.252Z,73.88
2018-09-03T22:17:50.221Z,74.06
2018-09-03T22:20:19.176Z,74.26
2018-09-03T22:22:48.249Z,75.30
2018-09-03T22:25:17.225Z,74.83
2018-09-03T22:27:46.161Z,73.96
2018-09-03T22:32:52.869Z,74.33
2018-09-03T22:35:21.840Z,75.16
2018-09-03T22:37:50.807Z,74.73
2018-09-03T22:40:20.042Z,75.23
2018-09-03T22:42:49.062Z,76.01
2018-09-03T22:45:17.971Z,75.31
2018-09-03T22:47:46.891Z,74.56
2018-09-03T22:50:15.890Z,75.50
2018-09-03T22:52:45.206Z,74.51
2018-09-03T22:55:14.261Z,75.10
2018-09-03T22:57:43.260Z,74.91
2018-09-03T23:00:12.223Z,74.60
2018-09-03T23:02:46.076Z,76.62
2018-09-03T23:05:15.006Z,75.77
2018-09-03T23:07:43.958Z,75.49
2018-09-03T23:10:12.867Z,75.59
2018-09-03T23:12:41.875Z,76.39
2018-09-03T23:15:10.850Z,74.86
2018-09-03T23:17:39.810Z,75.71
2018-09-03T23:20:08.750Z,75.34
2018-09-03T23:22:37.736Z,74.75
2018-09-03T23:25:06.692Z,76.53
2018-09-03T23:27:35.656Z,76.39
2018-09-03T23:30:04.591Z,76.76
2018-09-03T23:32:33.532Z,76.45
2018-09-03T23:35:02.479Z,77.29
2018-09-03T23:37:31.423Z,76.42
2018-09-03T23:40:00.385Z,76.42
2018-09-03T23:42:29.368Z,78.17
2018-09-03T23:44:58.275Z,77.77
2018-09-03T23:47:27.218Z,77.66
2018-09-03T23:49:56.236Z,77.97
2018-09-03T23:52:25.195Z,77.65
2018-09-03T23:54:54.718Z,79.71
2018-09-03T23:57:23.743Z,77.95
2018-09-03T23:59:52.786Z,78.63
